Brighton, Michigan
Current Conditions -  °F | °C
As of 7:34 AM on Monday 20 Oct 2014 (Local Time) from KOZW Reporting Station
Overcast Overcast  
Wind Chill: 43°   Ceiling: 4900
Heat Index: 46°   Visibility: 10mi
Dew Point: 44°   Wind: 5mph
Humidity: 93%   Direction: 190°S
Pressure: 29.83"   Gusts: NA
Location:  42.53°N, 83.78°W
Report Text: KOZW 201134Z AUTO 19004KT 10SM OVC049 08/07 A2983 RMK AO2 T00760066
Loading
Personal Weather Stations






























Interactive Weather Map New forecast layout! Learn more

10-Day Weather Forecast

Advertisements
Track Severe Weather on mobile